Time;durP1;ratioP1;P1;durP2;ratioP2;P2;SDS_P1;SDS_P2;PMS_P1;PMS_P2;Temp;Humidity;BMP_temperature;BMP_pressure;BME280_temperature;BME280_humidity;BME280_pressure;Samples;Min_cycle;Max_cycle;Signal;HPM_P1;HPM_P2
2023/09/16 00:00:08;;;;;;;10.43;7.18;;;15.60;99.90;;;;;;5124543;27;20623;-61
2023/09/16 00:02:37;;;;;;;11.98;7.70;;;15.60;99.90;;;;;;5124934;27;20117;-61
2023/09/16 00:05:03;;;;;;;10.43;7.40;;;15.70;99.90;;;;;;5105317;27;20023;-61
2023/09/16 00:07:29;;;;;;;14.18;10.05;;;15.70;99.90;;;;;;5124852;27;20068;-62
2023/09/16 00:09:56;;;;;;;11.13;8.70;;;15.70;99.90;;;;;;5106018;27;20043;-63
2023/09/16 00:12:25;;;;;;;13.02;9.68;;;15.70;99.90;;;;;;5124764;27;20084;-62
2023/09/16 00:14:52;;;;;;;12.18;9.20;;;15.60;99.90;;;;;;5124144;27;20034;-62
2023/09/16 00:17:17;;;;;;;10.75;7.47;;;15.50;99.90;;;;;;5124285;27;20776;-62
2023/09/16 00:19:43;;;;;;;11.35;8.07;;;15.50;99.90;;;;;;5124569;27;20039;-62
2023/09/16 00:22:10;;;;;;;9.73;7.45;;;15.50;99.90;;;;;;5106500;27;20039;-62
2023/09/16 00:24:36;;;;;;;9.77;7.80;;;15.50;99.90;;;;;;5124289;27;20039;-62
2023/09/16 00:27:03;;;;;;;9.13;7.40;;;15.50;99.90;;;;;;5124128;27;20034;-62
2023/09/16 00:29:29;;;;;;;11.88;8.43;;;15.50;99.90;;;;;;5123914;27;20031;-62
2023/09/16 00:31:55;;;;;;;12.45;8.43;;;15.50;99.90;;;;;;5123881;27;20035;-62
2023/09/16 00:34:20;;;;;;;11.80;8.23;;;15.40;99.90;;;;;;5123798;27;20050;-62
2023/09/16 00:36:47;;;;;;;11.10;8.30;;;15.40;99.90;;;;;;5123974;27;20394;-62
2023/09/16 00:39:13;;;;;;;11.15;7.97;;;15.40;99.90;;;;;;5122738;27;20036;-62
2023/09/16 00:41:39;;;;;;;11.82;7.93;;;15.30;99.90;;;;;;5124022;27;20054;-62
2023/09/16 00:44:05;;;;;;;11.23;8.60;;;15.30;99.90;;;;;;5124253;27;20039;-62
2023/09/16 00:46:31;;;;;;;12.38;9.10;;;15.20;99.90;;;;;;5123551;27;20508;-62
2023/09/16 00:48:56;;;;;;;11.43;8.68;;;15.20;99.90;;;;;;5123987;27;20047;-62
2023/09/16 00:51:22;;;;;;;10.68;8.32;;;15.10;99.90;;;;;;5124388;27;20035;-62
2023/09/16 00:53:49;;;;;;;12.30;8.52;;;15.10;99.90;;;;;;5123787;27;22037;-62
2023/09/16 00:56:15;;;;;;;10.75;8.38;;;15.10;99.90;;;;;;5124023;27;20035;-62
2023/09/16 00:58:41;;;;;;;9.80;8.23;;;15.10;99.90;;;;;;5104306;28;20069;-62
2023/09/16 01:01:09;;;;;;;11.35;8.80;;;15.10;99.90;;;;;;5122873;28;20568;-63
2023/09/16 01:03:36;;;;;;;11.18;8.75;;;15.10;99.90;;;;;;5105422;28;20039;-62
2023/09/16 01:06:06;;;;;;;12.07;8.95;;;15.10;99.90;;;;;;5105642;28;20041;-62
2023/09/16 01:08:34;;;;;;;11.23;8.88;;;15.10;99.90;;;;;;5122533;28;20067;-62
2023/09/16 01:11:04;;;;;;;10.18;8.40;;;15.10;99.90;;;;;;5123580;28;20039;-63
2023/09/16 01:13:32;;;;;;;10.35;8.90;;;15.00;99.90;;;;;;5122717;28;20096;-62
2023/09/16 01:16:17;;;;;;;12.65;9.02;;;15.00;99.90;;;;;;5123298;28;20126;-61
2023/09/16 01:18:47;;;;;;;11.48;9.32;;;15.10;99.90;;;;;;5122795;28;21204;-62
2023/09/16 01:21:14;;;;;;;12.77;9.57;;;15.00;99.90;;;;;;5122526;28;20045;-62
2023/09/16 01:23:40;;;;;;;11.57;8.77;;;15.00;99.90;;;;;;5122761;28;20035;-62
2023/09/16 01:26:06;;;;;;;12.15;9.40;;;15.00;99.90;;;;;;5122964;28;20036;-62
2023/09/16 01:28:32;;;;;;;11.05;9.55;;;15.00;99.90;;;;;;5105555;28;20027;-62
2023/09/16 01:30:58;;;;;;;12.48;9.35;;;15.00;99.90;;;;;;5105013;28;20088;-62
2023/09/16 01:33:44;;;;;;;13.00;8.88;;;15.00;99.90;;;;;;5104246;28;20035;-62
2023/09/16 01:36:14;;;;;;;10.43;8.60;;;14.90;99.90;;;;;;5122992;28;20118;-62
2023/09/16 01:38:43;;;;;;;10.52;8.90;;;14.90;99.90;;;;;;5123370;28;20034;-63
2023/09/16 01:41:10;;;;;;;12.43;9.73;;;14.90;99.90;;;;;;5123513;28;20064;-62
2023/09/16 01:43:37;;;;;;;9.93;8.60;;;14.90;99.90;;;;;;5105395;27;20027;-62
2023/09/16 01:46:03;;;;;;;11.90;9.25;;;14.90;99.90;;;;;;5125487;27;20497;-62
2023/09/16 01:48:29;;;;;;;10.93;9.25;;;14.80;99.90;;;;;;5108233;27;20084;-62
2023/09/16 01:50:55;;;;;;;11.80;9.75;;;14.70;99.90;;;;;;5127260;27;20051;-62
2023/09/16 01:53:20;;;;;;;10.75;9.07;;;14.70;99.90;;;;;;5127469;27;20477;-62
2023/09/16 01:55:46;;;;;;;12.02;9.40;;;14.80;99.90;;;;;;5127560;27;20019;-62
2023/09/16 01:58:12;;;;;;;10.93;9.80;;;14.70;99.90;;;;;;5126324;27;20082;-62
2023/09/16 02:00:37;;;;;;;15.10;9.55;;;14.80;99.90;;;;;;5126172;27;20466;-62
2023/09/16 02:03:03;;;;;;;12.18;10.40;;;14.80;99.90;;;;;;5126517;27;20067;-62
2023/09/16 02:05:29;;;;;;;11.90;10.50;;;14.80;99.90;;;;;;5127019;27;20048;-62
2023/09/16 02:07:57;;;;;;;12.82;9.68;;;14.70;99.90;;;;;;5108186;27;20039;-62
2023/09/16 02:10:22;;;;;;;12.32;9.98;;;14.80;99.90;;;;;;5109339;27;20146;-62
2023/09/16 02:12:48;;;;;;;13.38;11.38;;;14.70;99.90;;;;;;5091653;27;20110;-62
2023/09/16 02:15:14;;;;;;;11.35;10.00;;;14.70;99.90;;;;;;5126794;27;20039;-62
2023/09/16 02:17:40;;;;;;;12.68;10.25;;;14.70;99.90;;;;;;5126580;27;20065;-63
2023/09/16 02:20:12;;;;;;;15.70;11.15;;;14.60;99.90;;;;;;5125294;27;20039;-62
2023/09/16 02:22:40;;;;;;;13.32;10.38;;;14.70;99.90;;;;;;5126414;27;20038;-62
2023/09/16 02:25:06;;;;;;;12.43;11.13;;;14.60;99.90;;;;;;5126436;27;20050;-61
2023/09/16 02:27:32;;;;;;;12.50;10.57;;;14.60;99.90;;;;;;5126496;27;20035;-62
2023/09/16 02:29:58;;;;;;;13.13;10.48;;;14.60;99.90;;;;;;5126929;27;20117;-62
2023/09/16 02:32:23;;;;;;;15.57;11.23;;;14.60;99.90;;;;;;5107911;27;20172;-62
2023/09/16 02:34:49;;;;;;;12.15;10.93;;;14.50;99.90;;;;;;5105786;27;20043;-62
2023/09/16 02:37:15;;;;;;;12.07;10.85;;;14.50;99.90;;;;;;5126299;27;20062;-62
2023/09/16 02:39:40;;;;;;;11.57;10.38;;;14.40;99.90;;;;;;5126341;27;20088;-63
2023/09/16 02:42:06;;;;;;;12.43;11.13;;;14.40;99.90;;;;;;5126196;27;20039;-62
2023/09/16 02:44:32;;;;;;;14.93;12.32;;;14.40;99.90;;;;;;5126167;27;20039;-62
2023/09/16 02:46:57;;;;;;;14.25;12.45;;;14.40;99.90;;;;;;5091729;27;20043;-63
2023/09/16 02:49:23;;;;;;;13.80;11.73;;;14.40;99.90;;;;;;5102780;27;20079;-62
2023/09/16 02:51:49;;;;;;;12.75;11.35;;;14.40;99.90;;;;;;5105510;28;20036;-62
2023/09/16 02:54:15;;;;;;;13.00;11.65;;;14.40;99.90;;;;;;5104824;28;20036;-62
2023/09/16 02:56:40;;;;;;;12.48;11.05;;;14.40;99.90;;;;;;5105211;28;20034;-62
2023/09/16 02:59:06;;;;;;;13.10;11.35;;;14.30;99.90;;;;;;5105179;28;20035;-62
2023/09/16 03:01:32;;;;;;;12.35;11.15;;;14.30;99.90;;;;;;5105780;28;20031;-62
2023/09/16 03:03:58;;;;;;;13.02;11.48;;;14.30;99.90;;;;;;5103944;28;20088;-62
2023/09/16 03:06:25;;;;;;;13.40;12.00;;;14.30;99.90;;;;;;5105684;28;20097;-62
2023/09/16 03:08:51;;;;;;;13.93;12.52;;;14.20;99.90;;;;;;5104271;28;20467;-62
2023/09/16 03:11:18;;;;;;;14.32;11.93;;;14.20;99.90;;;;;;5105335;28;20059;-62
2023/09/16 03:13:44;;;;;;;14.52;12.57;;;14.30;99.90;;;;;;5104573;28;20042;-62
2023/09/16 03:16:22;;;;;;;14.27;12.88;;;14.20;99.90;;;;;;5105630;28;20032;-62
2023/09/16 03:18:50;;;;;;;14.93;12.48;;;14.20;99.90;;;;;;5104493;28;20032;-62
2023/09/16 03:21:18;;;;;;;15.40;13.88;;;14.20;99.90;;;;;;5105375;28;20470;-62
2023/09/16 03:23:44;;;;;;;16.00;14.40;;;14.20;99.90;;;;;;5104402;28;20031;-61
2023/09/16 03:26:11;;;;;;;14.82;13.32;;;14.20;99.90;;;;;;5103181;28;20042;-62
2023/09/16 03:28:42;;;;;;;14.30;12.82;;;14.20;99.90;;;;;;5103031;28;20075;-62
2023/09/16 03:31:09;;;;;;;15.65;13.18;;;14.20;99.90;;;;;;5105104;28;20023;-62
2023/09/16 03:33:36;;;;;;;14.90;13.05;;;14.20;99.90;;;;;;5104761;28;20417;-62
2023/09/16 03:36:02;;;;;;;14.18;12.68;;;14.10;99.90;;;;;;5104264;28;20031;-62
2023/09/16 03:38:30;;;;;;;13.55;11.93;;;14.10;99.90;;;;;;5104066;28;20407;-63
2023/09/16 03:40:56;;;;;;;14.73;13.23;;;14.10;99.90;;;;;;5104488;28;20028;-62
2023/09/16 03:43:22;;;;;;;13.95;12.55;;;14.10;99.90;;;;;;5104568;28;20115;-62
2023/09/16 03:45:47;;;;;;;14.68;13.18;;;14.10;99.90;;;;;;5104986;28;20570;-62
2023/09/16 03:48:13;;;;;;;14.65;13.07;;;14.10;99.90;;;;;;5103520;28;20112;-62
2023/09/16 03:50:39;;;;;;;14.20;12.70;;;14.10;99.90;;;;;;5121921;27;20049;-61
2023/09/16 03:53:05;;;;;;;13.25;11.85;;;14.00;99.90;;;;;;5124706;27;20228;-62
2023/09/16 03:55:31;;;;;;;13.95;11.80;;;14.00;99.90;;;;;;5124836;27;20501;-61
2023/09/16 03:57:57;;;;;;;14.88;12.60;;;13.90;99.90;;;;;;5124420;27;20069;-60
2023/09/16 04:00:22;;;;;;;13.40;12.00;;;13.90;99.90;;;;;;5124735;27;20406;-63
2023/09/16 04:02:48;;;;;;;14.02;12.52;;;13.90;99.90;;;;;;5124961;27;20050;-62
2023/09/16 04:05:14;;;;;;;14.95;13.35;;;13.90;99.90;;;;;;5105934;27;20065;-62
2023/09/16 04:07:40;;;;;;;14.20;12.75;;;13.90;99.90;;;;;;5123071;27;20042;-62
2023/09/16 04:10:09;;;;;;;14.20;12.70;;;13.80;99.90;;;;;;5107184;27;20106;-62
2023/09/16 04:12:38;;;;;;;14.52;12.85;;;13.80;99.90;;;;;;5105353;27;20505;-62
2023/09/16 04:15:04;;;;;;;15.98;13.57;;;13.80;99.90;;;;;;5124278;27;20035;-63
2023/09/16 04:17:30;;;;;;;14.38;12.85;;;13.70;99.90;;;;;;5123024;27;20043;-62
2023/09/16 04:19:56;;;;;;;15.75;12.90;;;13.70;99.90;;;;;;5106407;27;20039;-62
2023/09/16 04:22:22;;;;;;;15.38;13.88;;;13.60;99.90;;;;;;5105782;27;20034;-62
2023/09/16 04:24:48;;;;;;;15.00;13.50;;;13.60;99.90;;;;;;5124593;27;20087;-62
2023/09/16 04:27:13;;;;;;;16.25;14.38;;;13.60;99.90;;;;;;5105753;27;20031;-62
2023/09/16 04:29:39;;;;;;;16.88;14.85;;;13.60;99.90;;;;;;5124193;27;20031;-62
2023/09/16 04:32:05;;;;;;;15.32;13.57;;;13.60;99.90;;;;;;5123663;27;20053;-62
2023/09/16 04:34:32;;;;;;;15.30;13.80;;;13.60;99.90;;;;;;5123963;27;20067;-62
2023/09/16 04:36:59;;;;;;;13.88;12.48;;;13.60;99.90;;;;;;5123791;27;20058;-62
2023/09/16 04:39:26;;;;;;;15.80;13.70;;;13.60;99.90;;;;;;5123921;27;20436;-62
2023/09/16 04:41:55;;;;;;;15.38;13.77;;;13.60;99.90;;;;;;5124362;27;20031;-62
2023/09/16 04:44:22;;;;;;;14.35;12.65;;;13.60;99.90;;;;;;5123266;27;20440;-62
2023/09/16 04:46:53;;;;;;;15.95;14.25;;;13.60;99.90;;;;;;5123975;27;20498;-62
2023/09/16 04:49:19;;;;;;;15.65;14.13;;;13.60;99.90;;;;;;5123563;27;20043;-62
2023/09/16 04:51:44;;;;;;;15.18;13.68;;;13.60;99.90;;;;;;5123791;27;20050;-62
2023/09/16 04:54:11;;;;;;;14.50;13.00;;;13.50;99.90;;;;;;5123536;27;20027;-62
2023/09/16 04:56:37;;;;;;;15.82;14.18;;;13.50;99.90;;;;;;5123786;27;21312;-61
2023/09/16 04:59:03;;;;;;;16.38;14.75;;;13.50;99.90;;;;;;5123752;27;21074;-61
2023/09/16 05:01:31;;;;;;;15.27;13.77;;;13.50;99.90;;;;;;5122747;28;20031;-62
2023/09/16 05:03:58;;;;;;;16.38;14.82;;;13.60;99.90;;;;;;5123473;28;20414;-62
2023/09/16 05:06:24;;;;;;;15.80;14.23;;;13.50;99.90;;;;;;5123358;28;20039;-62
2023/09/16 05:08:49;;;;;;;16.65;14.95;;;13.50;99.90;;;;;;5122781;28;20092;-62
2023/09/16 05:11:15;;;;;;;14.98;9.00;;;13.50;99.90;;;;;;5122888;28;20043;-61
2023/09/16 05:13:42;;;;;;;14.82;13.25;;;13.40;99.90;;;;;;5104977;28;20051;-61
2023/09/16 05:16:10;;;;;;;15.13;13.52;;;13.40;99.90;;;;;;5105058;28;20579;-62
2023/09/16 05:18:36;;;;;;;15.82;14.13;;;13.50;99.90;;;;;;5123961;27;20482;-61
2023/09/16 05:21:02;;;;;;;16.30;14.77;;;13.40;99.90;;;;;;5127476;27;20054;-62
2023/09/16 05:23:33;;;;;;;16.05;14.45;;;13.40;99.90;;;;;;5127868;27;20035;-60
2023/09/16 05:25:59;;;;;;;17.02;15.30;;;13.50;99.90;;;;;;5109105;27;20122;-62
2023/09/16 05:28:25;;;;;;;16.17;14.48;;;13.50;99.90;;;;;;5127712;27;20807;-61
2023/09/16 05:30:56;;;;;;;16.52;14.63;;;13.50;99.90;;;;;;5127271;27;20034;-62
2023/09/16 05:33:23;;;;;;;16.23;14.60;;;13.50;99.90;;;;;;5126829;27;20114;-60
2023/09/16 05:35:49;;;;;;;16.70;14.93;;;13.50;99.90;;;;;;5127290;27;20037;-61
2023/09/16 05:38:15;;;;;;;16.42;14.82;;;13.50;99.90;;;;;;5127188;27;20034;-61
2023/09/16 05:40:41;;;;;;;15.70;14.20;;;13.50;99.90;;;;;;5127437;27;20511;-62
2023/09/16 05:43:06;;;;;;;17.90;16.00;;;13.50;99.90;;;;;;5127623;27;20023;-61
2023/09/16 05:45:32;;;;;;;18.20;16.48;;;13.50;99.90;;;;;;5127152;27;20074;-61
2023/09/16 05:48:02;;;;;;;16.80;15.10;;;13.50;99.90;;;;;;5108043;27;20039;-62
2023/09/16 05:50:28;;;;;;;18.00;16.08;;;13.50;99.90;;;;;;5126666;27;20111;-62
2023/09/16 05:52:54;;;;;;;19.98;17.88;;;13.60;99.90;;;;;;5127094;27;20035;-62
2023/09/16 05:55:19;;;;;;;19.30;17.30;;;13.60;99.90;;;;;;5110310;27;20028;-62
2023/09/16 05:57:45;;;;;;;19.75;17.67;;;13.60;99.90;;;;;;5126510;27;20475;-62
2023/09/16 06:00:11;;;;;;;19.73;17.73;;;13.60;99.90;;;;;;5126962;27;20546;-62
2023/09/16 06:02:39;;;;;;;21.25;19.10;;;13.70;99.90;;;;;;5108369;27;20027;-62
2023/09/16 06:05:08;;;;;;;19.63;17.55;;;13.60;99.90;;;;;;5126631;27;20074;-62
2023/09/16 06:07:39;;;;;;;19.67;17.58;;;13.60;99.90;;;;;;5126480;27;20046;-62
2023/09/16 06:10:06;;;;;;;17.85;16.05;;;13.70;99.90;;;;;;5126601;27;20050;-62
2023/09/16 06:12:33;;;;;;;19.73;17.73;;;13.70;99.90;;;;;;5126240;27;20031;-62
2023/09/16 06:14:59;;;;;;;19.05;17.08;;;13.70;99.90;;;;;;5091161;27;20037;-62
2023/09/16 06:17:24;;;;;;;20.33;18.23;;;13.80;99.90;;;;;;5107552;27;20043;-62
2023/09/16 06:19:55;;;;;;;20.45;18.45;;;13.70;99.90;;;;;;5125872;27;20035;-62
2023/09/16 06:22:24;;;;;;;19.60;17.55;;;13.80;99.90;;;;;;5109013;27;20043;-62
2023/09/16 06:24:53;;;;;;;18.08;16.17;;;13.80;99.90;;;;;;5126029;27;20470;-62
2023/09/16 06:27:19;;;;;;;17.95;16.10;;;13.80;99.90;;;;;;5109142;27;22476;-62
2023/09/16 06:29:46;;;;;;;18.15;16.27;;;13.10;99.90;;;;;;5127137;27;20031;-62
2023/09/16 06:32:12;;;;;;;18.17;16.33;;;13.90;99.90;;;;;;5106535;27;20027;-62
2023/09/16 06:34:38;;;;;;;17.63;15.80;;;13.90;99.90;;;;;;5126449;27;20096;-62
2023/09/16 06:37:05;;;;;;;19.27;17.27;;;13.90;99.90;;;;;;5126393;27;20039;-62
2023/09/16 06:39:32;;;;;;;19.10;16.05;;;14.00;99.90;;;;;;5126328;27;20046;-62
2023/09/16 06:41:58;;;;;;;18.05;16.20;;;14.00;99.90;;;;;;5126303;27;20039;-62
2023/09/16 06:44:23;;;;;;;18.88;16.92;;;14.10;99.90;;;;;;5125550;27;20038;-62
2023/09/16 06:46:49;;;;;;;19.30;10.77;;;14.10;99.90;;;;;;5125375;27;20042;-62
2023/09/16 06:49:17;;;;;;;17.83;15.38;;;14.10;99.90;;;;;;5125756;27;20051;-62
2023/09/16 06:51:43;;;;;;;18.17;16.27;;;14.10;99.90;;;;;;5125762;27;20043;-62
2023/09/16 06:54:09;;;;;;;19.30;17.20;;;14.20;99.90;;;;;;5126057;27;20027;-62
2023/09/16 06:56:35;;;;;;;19.65;17.65;;;14.40;99.90;;;;;;5125846;27;20393;-62
2023/09/16 06:59:01;;;;;;;18.15;16.25;;;14.40;99.90;;;;;;5107676;27;20350;-62
2023/09/16 07:01:27;;;;;;;18.05;16.17;;;14.50;99.90;;;;;;5125901;27;20045;-62
2023/09/16 07:03:53;;;;;;;18.10;16.30;;;14.50;99.90;;;;;;5126058;27;20062;-63
2023/09/16 07:06:19;;;;;;;19.15;17.25;;;14.70;99.90;;;;;;5090109;27;20363;-62
2023/09/16 07:08:44;;;;;;;17.65;15.77;;;14.80;99.90;;;;;;5107145;27;20035;-62
2023/09/16 07:11:12;;;;;;;17.40;15.70;;;14.80;99.90;;;;;;5125441;27;20042;-62
2023/09/16 07:13:38;;;;;;;17.00;15.40;;;14.80;99.90;;;;;;5124877;27;20043;-62
2023/09/16 07:16:04;;;;;;;17.95;16.15;;;14.90;99.90;;;;;;5125909;27;20462;-62
2023/09/16 07:18:30;;;;;;;16.45;14.75;;;15.00;99.90;;;;;;5125455;27;20050;-62
2023/09/16 07:20:56;;;;;;;17.70;15.68;;;15.00;99.90;;;;;;5125723;27;20440;-62
2023/09/16 07:23:22;;;;;;;17.33;15.52;;;15.10;99.90;;;;;;5125177;27;20046;-61
2023/09/16 07:25:58;;;;;;;19.90;15.73;;;15.20;99.90;;;;;;5107737;27;20155;-62
2023/09/16 07:28:25;;;;;;;19.23;16.20;;;15.20;99.90;;;;;;5106394;27;20517;-62
2023/09/16 07:30:51;;;;;;;15.73;14.18;;;15.40;99.90;;;;;;5124796;27;20031;-62
2023/09/16 07:33:17;;;;;;;15.50;13.80;;;15.40;99.90;;;;;;5124802;27;20035;-62
2023/09/16 07:35:43;;;;;;;17.30;15.50;;;15.50;99.90;;;;;;5125581;27;20039;-62
2023/09/16 07:38:09;;;;;;;15.70;14.15;;;15.60;99.90;;;;;;5107375;27;20165;-62
2023/09/16 07:40:37;;;;;;;15.88;14.38;;;15.70;99.90;;;;;;5106472;27;20035;-62
2023/09/16 07:43:07;;;;;;;16.83;15.13;;;15.70;99.90;;;;;;5124169;27;20055;-62
2023/09/16 07:45:32;;;;;;;15.45;13.85;;;15.80;99.90;;;;;;5124850;27;20043;-61
2023/09/16 07:47:58;;;;;;;14.85;13.18;;;15.90;99.90;;;;;;5125010;27;20046;-62
2023/09/16 07:50:24;;;;;;;15.02;13.43;;;16.00;99.90;;;;;;5125186;27;20055;-62
2023/09/16 07:52:49;;;;;;;15.18;13.13;;;16.10;99.90;;;;;;5125127;27;20099;-63
2023/09/16 07:55:15;;;;;;;14.45;12.57;;;16.20;99.90;;;;;;5123923;27;20038;-63
2023/09/16 07:57:41;;;;;;;14.30;12.80;;;16.40;99.90;;;;;;5106039;27;20618;-62
2023/09/16 08:00:07;;;;;;;14.75;13.13;;;16.40;99.90;;;;;;5124752;27;20390;-62
2023/09/16 08:02:33;;;;;;;15.60;13.15;;;16.50;99.90;;;;;;5106809;27;20462;-61
2023/09/16 08:04:59;;;;;;;15.98;14.30;;;16.60;99.90;;;;;;5124729;27;20486;-62
2023/09/16 08:07:25;;;;;;;16.92;14.50;;;16.70;99.90;;;;;;5124913;27;20104;-62
2023/09/16 08:09:51;;;;;;;18.35;12.68;;;16.80;99.90;;;;;;5125203;27;20088;-62
2023/09/16 08:12:17;;;;;;;16.45;14.38;;;17.00;99.90;;;;;;5124976;27;20089;-62
2023/09/16 08:14:43;;;;;;;15.98;13.82;;;17.10;99.90;;;;;;5105098;27;20473;-63
2023/09/16 08:17:09;;;;;;;14.65;13.02;;;17.30;99.90;;;;;;5123595;27;20035;-62
2023/09/16 08:19:34;;;;;;;14.90;13.30;;;17.30;99.90;;;;;;5124029;27;20370;-63
2023/09/16 08:22:00;;;;;;;13.30;11.88;;;17.50;99.90;;;;;;5123988;27;20042;-63
2023/09/16 08:24:27;;;;;;;17.67;10.65;;;17.60;99.90;;;;;;5124128;27;20111;-63
2023/09/16 08:26:52;;;;;;;15.30;11.25;;;17.60;99.90;;;;;;5124589;27;20056;-62
2023/09/16 08:29:18;;;;;;;13.18;11.55;;;17.70;99.90;;;;;;5105349;27;20031;-62
2023/09/16 08:31:44;;;;;;;14.55;10.70;;;17.80;99.90;;;;;;5124569;27;20027;-62
2023/09/16 08:34:09;;;;;;;13.65;11.38;;;18.00;99.90;;;;;;5124199;27;20497;-62
2023/09/16 08:36:35;;;;;;;13.32;11.55;;;18.00;99.90;;;;;;5105693;27;20187;-63
2023/09/16 08:39:01;;;;;;;14.75;10.98;;;18.10;99.90;;;;;;5123725;27;20042;-62
2023/09/16 08:41:37;;;;;;;16.15;11.57;;;18.10;99.90;;;;;;5124460;27;20043;-62
2023/09/16 08:44:05;;;;;;;14.73;11.63;;;18.20;99.90;;;;;;5122921;27;20046;-62
2023/09/16 08:46:33;;;;;;;14.80;10.90;;;18.30;99.90;;;;;;5123715;27;20058;-62
2023/09/16 08:49:03;;;;;;;13.82;11.35;;;18.40;99.90;;;;;;5105345;27;20112;-62
2023/09/16 08:51:34;;;;;;;16.27;12.00;;;18.50;99.90;;;;;;5123956;27;20028;-62
2023/09/16 08:54:03;;;;;;;13.30;10.63;;;18.50;99.90;;;;;;5122680;27;20494;-63
2023/09/16 08:56:32;;;;;;;15.80;11.13;;;18.60;99.90;;;;;;5123772;27;20140;-62
2023/09/16 08:58:59;;;;;;;12.05;9.90;;;18.60;99.90;;;;;;5123987;27;20031;-61
2023/09/16 09:01:25;;;;;;;10.45;8.98;;;18.60;99.90;;;;;;5123743;28;20040;-62
2023/09/16 09:03:52;;;;;;;12.05;9.55;;;18.70;99.90;;;;;;5105783;28;20038;-62
2023/09/16 09:06:21;;;;;;;14.57;10.13;;;18.70;99.90;;;;;;5123290;28;20049;-62
2023/09/16 09:08:47;;;;;;;12.98;10.50;;;18.80;99.90;;;;;;5124135;28;20047;-61
2023/09/16 09:11:15;;;;;;;11.77;9.60;;;18.80;99.90;;;;;;5123082;27;20281;-62
2023/09/16 09:13:48;;;;;;;11.90;9.95;;;18.80;99.90;;;;;;5122276;28;20047;-62
2023/09/16 09:16:18;;;;;;;14.95;10.18;;;18.90;99.90;;;;;;5122573;27;20043;-62
2023/09/16 09:18:46;;;;;;;12.73;10.45;;;18.90;99.90;;;;;;5122309;28;20039;-62
2023/09/16 09:21:13;;;;;;;12.30;10.57;;;19.00;99.90;;;;;;5105544;27;20039;-62
2023/09/16 09:23:39;;;;;;;12.40;10.85;;;19.00;99.90;;;;;;5123734;28;20126;-63
2023/09/16 09:26:05;;;;;;;12.25;10.77;;;19.10;99.90;;;;;;5123670;28;20431;-62
2023/09/16 09:28:33;;;;;;;12.93;10.00;;;19.30;99.90;;;;;;5122989;28;20131;-62
2023/09/16 09:30:59;;;;;;;11.55;8.95;;;19.50;99.90;;;;;;5123742;28;20038;-63
2023/09/16 09:33:27;;;;;;;10.88;7.97;;;19.60;99.90;;;;;;5123072;28;20169;-62
2023/09/16 09:36:13;;;;;;;14.13;9.63;;;19.90;99.90;;;;;;5122947;28;20035;-62
2023/09/16 09:38:43;;;;;;;9.95;7.90;;;20.10;99.90;;;;;;5122962;28;20582;-62
2023/09/16 09:41:10;;;;;;;8.63;7.15;;;20.20;99.90;;;;;;5106241;28;20381;-62
2023/09/16 09:43:36;;;;;;;10.70;8.30;;;20.20;99.90;;;;;;5103520;28;20051;-62
2023/09/16 09:46:02;;;;;;;10.50;8.20;;;20.30;99.90;;;;;;5122833;28;20110;-61
2023/09/16 09:48:30;;;;;;;10.90;8.27;;;20.40;99.90;;;;;;5105336;28;20481;-62
2023/09/16 09:50:56;;;;;;;9.65;8.27;;;20.60;99.90;;;;;;5105183;28;20583;-62
2023/09/16 09:53:23;;;;;;;10.57;8.32;;;20.70;99.90;;;;;;5123251;28;20040;-63
2023/09/16 09:55:50;;;;;;;11.40;7.55;;;20.80;99.90;;;;;;5104148;28;20075;-62
2023/09/16 09:58:18;;;;;;;8.57;7.68;;;20.90;99.90;;;;;;5122469;28;20111;-63
2023/09/16 10:00:50;;;;;;;11.02;8.95;;;21.00;99.90;;;;;;5122842;28;20038;-62
2023/09/16 10:03:21;;;;;;;9.13;7.05;;;21.10;99.90;;;;;;5122636;28;20122;-62
2023/09/16 10:05:47;;;;;;;10.45;7.93;;;21.20;99.90;;;;;;5122944;27;20671;-62
2023/09/16 10:08:13;;;;;;;9.90;7.38;;;21.30;99.90;;;;;;5108492;27;20047;-63
2023/09/16 10:10:40;;;;;;;9.20;7.55;;;21.40;99.90;;;;;;5127036;27;20035;-63
2023/09/16 10:13:07;;;;;;;10.68;7.20;;;21.40;99.90;;;;;;5126630;27;20031;-62
2023/09/16 10:15:36;;;;;;;9.07;7.05;;;21.40;99.90;;;;;;5126812;27;20070;-62
2023/09/16 10:18:06;;;;;;;10.35;7.55;;;21.50;99.90;;;;;;5127142;27;20122;-63
2023/09/16 10:20:41;;;;;;;9.45;6.47;;;21.60;99.90;;;;;;5126333;27;20054;-62
2023/09/16 10:23:08;;;;;;;9.55;6.65;;;21.60;99.90;;;;;;5126759;27;20490;-63
2023/09/16 10:25:35;;;;;;;9.52;6.60;;;21.70;99.90;;;;;;5125513;27;20027;-62
2023/09/16 10:28:04;;;;;;;11.65;6.47;;;21.90;99.90;;;;;;5126026;27;20047;-63
2023/09/16 10:30:31;;;;;;;7.93;6.00;;;22.00;99.90;;;;;;5126526;27;20030;-62
2023/09/16 10:33:01;;;;;;;9.07;6.85;;;22.10;99.90;;;;;;5126276;27;20033;-62
2023/09/16 10:35:32;;;;;;;13.18;7.13;;;22.20;99.90;;;;;;5108048;27;20872;-63
2023/09/16 10:38:00;;;;;;;10.20;6.93;;;22.30;99.90;;;;;;5125806;27;20798;-63
2023/09/16 10:40:26;;;;;;;8.80;6.93;;;22.40;99.90;;;;;;5126407;27;20551;-62
2023/09/16 10:42:53;;;;;;;9.95;7.32;;;22.60;99.90;;;;;;5106070;27;20027;-62
2023/09/16 10:45:21;;;;;;;8.55;6.93;;;22.70;99.90;;;;;;5106826;27;20106;-63
2023/09/16 10:47:48;;;;;;;9.15;6.32;;;22.70;99.90;;;;;;5125132;27;20047;-62
2023/09/16 10:50:14;;;;;;;7.70;6.00;;;22.60;99.90;;;;;;5126086;27;20118;-62
2023/09/16 10:52:50;;;;;;;9.15;6.88;;;22.60;99.90;;;;;;5126229;27;20509;-63
2023/09/16 10:55:21;;;;;;;10.40;7.22;;;22.70;99.90;;;;;;5126179;27;20070;-62
2023/09/16 10:58:01;;;;;;;11.85;6.80;;;22.80;99.90;;;;;;5125810;27;20524;-63
2023/09/16 11:00:31;;;;;;;8.30;6.53;;;22.80;99.90;;;;;;5125986;27;20037;-63
2023/09/16 11:02:58;;;;;;;8.30;6.55;;;22.90;99.90;;;;;;5126679;27;20027;-63
2023/09/16 11:05:25;;;;;;;8.10;6.38;;;23.10;99.90;;;;;;5125318;27;20035;-63
2023/09/16 11:07:53;;;;;;;8.85;6.53;;;23.30;99.90;;;;;;5125219;27;20439;-63
2023/09/16 11:10:19;;;;;;;10.25;7.03;;;23.60;99.90;;;;;;5107931;27;20027;-63
2023/09/16 11:12:46;;;;;;;8.43;6.45;;;23.80;99.90;;;;;;5124920;27;20060;-63
2023/09/16 11:15:13;;;;;;;8.18;5.82;;;24.00;99.90;;;;;;5125625;27;20050;-63
2023/09/16 11:17:40;;;;;;;7.45;5.55;;;24.10;99.90;;;;;;5106843;27;20134;-63
2023/09/16 11:20:21;;;;;;;8.75;5.32;;;24.30;99.90;;;;;;5107493;27;20056;-63
2023/09/16 11:22:48;;;;;;;9.35;5.20;;;24.40;99.90;;;;;;5125765;27;20031;-63
2023/09/16 11:25:17;;;;;;;9.07;5.03;;;24.60;99.90;;;;;;5090445;27;20031;-64
2023/09/16 11:27:49;;;;;;;8.60;5.32;;;24.70;99.90;;;;;;5124750;27;20448;-63
2023/09/16 11:30:16;;;;;;;6.40;4.15;;;25.00;99.90;;;;;;5107259;27;20023;-63
2023/09/16 11:33:03;;;;;;;6.57;3.72;;;25.10;99.90;;;;;;5125213;27;20030;-63
2023/09/16 11:35:29;;;;;;;5.50;3.67;;;25.10;99.90;;;;;;5124714;27;20027;-62
2023/09/16 11:37:56;;;;;;;5.63;3.83;;;25.10;99.90;;;;;;5125022;27;20060;-63
2023/09/16 11:40:29;;;;;;;6.82;3.80;;;25.30;99.90;;;;;;5125653;27;20038;-64
2023/09/16 11:42:59;;;;;;;6.85;2.60;;;25.40;99.90;;;;;;5124782;27;20514;-60
2023/09/16 11:45:26;;;;;;;5.25;2.90;;;25.50;99.90;;;;;;5124141;27;20401;-61
2023/09/16 11:47:52;;;;;;;5.22;2.53;;;25.60;99.90;;;;;;5124893;27;20049;-62
2023/09/16 11:50:26;;;;;;;5.88;2.70;;;25.70;99.90;;;;;;5105977;27;20112;-62
2023/09/16 11:52:52;;;;;;;5.15;2.85;;;25.90;99.90;;;;;;5105899;27;20035;-63
2023/09/16 11:55:19;;;;;;;5.40;2.40;;;26.00;99.90;;;;;;5125306;27;20038;-62
2023/09/16 11:57:48;;;;;;;3.33;1.95;;;26.00;99.90;;;;;;5104544;27;20125;-61
2023/09/16 12:00:15;;;;;;;4.13;2.13;;;26.10;99.90;;;;;;5106494;27;20054;-62
2023/09/16 12:02:42;;;;;;;4.50;2.00;;;26.10;99.90;;;;;;5105913;27;20469;-61
2023/09/16 12:05:09;;;;;;;3.30;1.90;;;26.00;99.90;;;;;;5124770;27;20039;-62
2023/09/16 12:07:36;;;;;;;4.65;2.10;;;26.00;99.80;;;;;;5124735;27;20035;-62
2023/09/16 12:10:03;;;;;;;5.28;2.20;;;26.10;99.70;;;;;;5124520;27;20473;-61
2023/09/16 12:12:29;;;;;;;3.85;2.03;;;26.30;99.60;;;;;;5124604;27;20043;-62
2023/09/16 12:15:02;;;;;;;4.68;2.30;;;26.40;99.60;;;;;;5104701;27;20031;-62
2023/09/16 12:17:28;;;;;;;4.63;2.50;;;26.50;99.20;;;;;;5123967;27;20387;-63
2023/09/16 12:19:55;;;;;;;4.50;2.22;;;26.60;99.20;;;;;;5124451;27;20294;-62
2023/09/16 12:22:21;;;;;;;5.35;2.40;;;26.70;99.00;;;;;;5124434;27;20462;-63
2023/09/16 12:24:51;;;;;;;4.60;2.42;;;26.80;98.60;;;;;;5124998;27;20039;-62
2023/09/16 12:27:17;;;;;;;6.50;2.60;;;26.80;98.70;;;;;;5124427;27;20122;-62
2023/09/16 12:29:43;;;;;;;5.07;2.47;;;26.90;99.10;;;;;;5123471;27;20493;-61
2023/09/16 12:32:15;;;;;;;4.57;2.35;;;26.90;99.10;;;;;;5124543;27;20045;-62